Time,TemperatureF,DewpointF,PressureIn,WindDirection,WindDirectionDegrees,WindSpeedMPH,WindSpeedGustMPH,Humidity,HourlyPrecipIn,Conditions,Clouds,dailyrainin,SoftwareType,DateUTC
2017-06-26 00:00:00,60.4,48.2,30.08,West,270,0.0,0.0,64,0.00,,---,0.00,VWS V15.00,2017-06-26 05:00:00,
2017-06-26 00:05:00,60.1,47.9,30.08,West,270,0.0,0.0,64,0.00,,---,0.00,VWS V15.00,2017-06-26 05:05:00,
2017-06-26 00:10:00,60.1,47.9,30.08,West,270,0.0,0.0,64,0.00,,---,0.00,VWS V15.00,2017-06-26 05:10:00,
2017-06-26 00:15:00,59.9,47.7,30.08,West,270,0.0,0.0,64,0.00,,---,0.00,VWS V15.00,2017-06-26 05:15:00,
2017-06-26 00:20:00,60.1,47.9,30.08,West,270,0.0,0.0,64,0.00,,---,0.00,VWS V15.00,2017-06-26 05:20:00,
2017-06-26 00:25:00,59.9,47.7,30.08,West,270,0.0,0.0,64,0.00,,---,0.00,VWS V15.00,2017-06-26 05:25:00,
2017-06-26 00:30:00,59.5,47.4,30.08,West,270,0.0,0.0,64,0.00,,---,0.00,VWS V15.00,2017-06-26 05:30:00,
2017-06-26 00:35:00,59.4,47.2,30.08,West,270,0.0,0.0,64,0.00,,---,0.00,VWS V15.00,2017-06-26 05:35:00,
2017-06-26 00:41:00,59.4,47.2,30.08,West,270,0.0,0.0,64,0.00,,---,0.00,VWS V15.00,2017-06-26 05:41:00,
2017-06-26 00:46:00,59.4,47.2,30.08,West,270,0.0,0.0,64,0.00,,---,0.00,VWS V15.00,2017-06-26 05:46:00,
2017-06-26 00:51:00,59.2,47.0,30.08,West,270,0.0,0.0,64,0.00,,---,0.00,VWS V15.00,2017-06-26 05:51:00,
2017-06-26 00:56:00,58.8,46.7,30.08,West,270,0.0,0.0,64,0.00,,---,0.00,VWS V15.00,2017-06-26 05:56:00,
2017-06-26 01:01:00,58.8,46.7,30.08,West,270,0.0,0.0,64,0.00,,---,0.00,VWS V15.00,2017-06-26 06:01:00,
2017-06-26 01:06:00,58.8,46.7,30.08,West,270,0.0,0.0,64,0.00,,---,0.00,VWS V15.00,2017-06-26 06:06:00,
2017-06-26 01:10:00,58.8,46.7,30.08,West,270,0.0,0.0,64,0.00,,---,0.00,VWS V15.00,2017-06-26 06:10:00,
2017-06-26 01:16:00,59.0,46.8,30.08,West,270,0.0,0.0,64,0.00,,---,0.00,VWS V15.00,2017-06-26 06:16:00,
2017-06-26 01:21:00,59.2,47.0,30.08,WSW,257,0.0,0.0,64,0.00,,---,0.00,VWS V15.00,2017-06-26 06:21:00,
2017-06-26 01:26:00,59.4,47.2,30.08,WSW,257,0.0,0.0,64,0.00,,---,0.00,VWS V15.00,2017-06-26 06:26:00,
2017-06-26 01:31:00,59.2,47.0,30.08,WSW,257,0.0,0.0,64,0.00,,---,0.00,VWS V15.00,2017-06-26 06:31:00,
2017-06-26 01:36:00,59.0,46.8,30.08,WSW,257,0.0,0.0,64,0.00,,---,0.00,VWS V15.00,2017-06-26 06:36:00,
2017-06-26 01:41:00,58.8,46.7,30.08,WSW,257,0.0,0.0,64,0.00,,---,0.00,VWS V15.00,2017-06-26 06:41:00,
2017-06-26 01:46:00,58.6,46.5,30.08,WSW,257,0.0,0.0,64,0.00,,---,0.00,VWS V15.00,2017-06-26 06:46:00,
2017-06-26 01:51:00,58.3,46.2,30.08,WSW,257,0.0,0.0,64,0.00,,---,0.00,VWS V15.00,2017-06-26 06:51:00,
2017-06-26 01:56:00,57.7,45.7,30.08,WSW,257,0.0,0.0,64,0.00,,---,0.00,VWS V15.00,2017-06-26 06:56:00,
2017-06-26 02:01:00,57.4,45.3,30.08,WSW,257,0.0,0.0,64,0.00,,---,0.00,VWS V15.00,2017-06-26 07:01:00,
2017-06-26 02:06:00,57.2,45.2,30.08,WSW,257,0.0,0.0,64,0.00,,---,0.00,VWS V15.00,2017-06-26 07:06:00,
2017-06-26 02:11:00,57.0,45.4,30.08,WSW,257,0.0,0.0,65,0.00,,---,0.00,VWS V15.00,2017-06-26 07:11:00,
2017-06-26 02:16:00,56.7,45.0,30.08,WSW,257,0.0,0.0,65,0.00,,---,0.00,VWS V15.00,2017-06-26 07:16:00,
2017-06-26 02:21:00,56.5,44.9,30.08,WSW,257,0.0,0.0,65,0.00,,---,0.00,VWS V15.00,2017-06-26 07:21:00,
2017-06-26 02:26:00,56.8,45.2,30.08,WSW,257,0.0,0.0,65,0.00,,---,0.00,VWS V15.00,2017-06-26 07:26:00,
2017-06-26 02:31:00,57.2,45.2,30.08,WSW,257,0.0,0.0,64,0.00,,---,0.00,VWS V15.00,2017-06-26 07:31:00,
2017-06-26 02:36:00,57.4,45.3,30.08,WSW,257,0.0,0.0,64,0.00,,---,0.00,VWS V15.00,2017-06-26 07:36:00,
2017-06-26 02:41:00,57.4,45.3,30.08,WSW,257,0.0,0.0,64,0.00,,---,0.00,VWS V15.00,2017-06-26 07:41:00,
2017-06-26 02:46:00,57.2,45.2,30.08,WSW,257,0.0,0.0,64,0.00,,---,0.00,VWS V15.00,2017-06-26 07:46:00,
2017-06-26 02:51:00,57.2,45.2,30.08,WSW,257,0.0,0.0,64,0.00,,---,0.00,VWS V15.00,2017-06-26 07:51:00,
2017-06-26 02:56:00,57.2,45.2,30.08,WSW,257,0.0,0.0,64,0.00,,---,0.00,VWS V15.00,2017-06-26 07:56:00,
2017-06-26 03:01:00,57.2,45.2,30.08,WSW,257,0.0,0.0,64,0.00,,---,0.00,VWS V15.00,2017-06-26 08:01:00,
2017-06-26 03:06:00,57.4,45.3,30.08,WSW,257,0.0,0.0,64,0.00,,---,0.00,VWS V15.00,2017-06-26 08:06:00,
2017-06-26 03:11:00,57.6,45.5,30.08,WSW,257,0.0,0.0,64,0.00,,---,0.00,VWS V15.00,2017-06-26 08:11:00,
2017-06-26 03:16:00,57.6,45.5,30.08,WSW,257,0.0,0.0,64,0.00,,---,0.00,VWS V15.00,2017-06-26 08:16:00,
2017-06-26 03:21:00,57.4,45.3,30.08,WSW,257,0.0,0.0,64,0.00,,---,0.00,VWS V15.00,2017-06-26 08:21:00,
2017-06-26 03:26:00,57.2,45.2,30.08,WSW,257,0.0,0.0,64,0.00,,---,0.00,VWS V15.00,2017-06-26 08:26:00,
2017-06-26 03:31:00,57.0,45.4,30.08,WSW,257,0.0,0.0,65,0.00,,---,0.00,VWS V15.00,2017-06-26 08:31:00,
2017-06-26 03:36:00,56.8,45.2,30.08,WSW,257,0.0,0.0,65,0.00,,---,0.00,VWS V15.00,2017-06-26 08:36:00,
2017-06-26 03:41:00,56.7,45.0,30.08,WSW,257,0.0,0.0,65,0.00,,---,0.00,VWS V15.00,2017-06-26 08:41:00,
2017-06-26 03:46:00,56.5,44.9,30.08,WSW,257,0.0,0.0,65,0.00,,---,0.00,VWS V15.00,2017-06-26 08:46:00,
2017-06-26 03:51:00,56.3,44.7,30.08,WSW,257,0.0,0.0,65,0.00,,---,0.00,VWS V15.00,2017-06-26 08:51:00,
2017-06-26 03:56:00,56.3,44.7,30.08,WSW,257,0.0,0.0,65,0.00,,---,0.00,VWS V15.00,2017-06-26 08:56:00,
2017-06-26 04:01:00,56.1,44.5,30.08,WSW,257,0.0,0.0,65,0.00,,---,0.00,VWS V15.00,2017-06-26 09:01:00,
2017-06-26 04:06:00,55.9,44.4,30.08,WSW,257,0.0,0.0,65,0.00,,---,0.00,VWS V15.00,2017-06-26 09:06:00,
2017-06-26 04:11:00,55.6,44.0,30.08,WSW,257,0.0,0.0,65,0.00,,---,0.00,VWS V15.00,2017-06-26 09:11:00,
2017-06-26 04:16:00,55.2,43.7,30.08,WSW,257,0.0,0.0,65,0.00,,---,0.00,VWS V15.00,2017-06-26 09:16:00,
2017-06-26 04:17:00,55.2,43.7,30.08,WSW,257,0.0,0.0,65,0.00,,---,0.00,VWS V15.00,2017-06-26 09:17:00,
2017-06-26 04:22:00,55.2,43.7,30.08,WSW,257,0.0,0.0,65,0.00,,---,0.00,VWS V15.00,2017-06-26 09:22:00,
2017-06-26 04:27:00,55.2,43.7,30.08,WSW,257,0.0,0.0,65,0.00,,---,0.00,VWS V15.00,2017-06-26 09:27:00,
2017-06-26 04:32:00,54.9,43.3,30.11,WSW,257,0.0,0.0,65,0.00,,---,0.00,VWS V15.00,2017-06-26 09:32:00,
2017-06-26 04:37:00,54.9,43.3,30.11,WSW,257,0.0,0.0,65,0.00,,---,0.00,VWS V15.00,2017-06-26 09:37:00,
2017-06-26 04:42:00,54.9,43.3,30.11,WSW,257,0.0,0.0,65,0.00,,---,0.00,VWS V15.00,2017-06-26 09:42:00,
2017-06-26 04:47:00,54.5,43.0,30.11,WSW,257,0.0,0.0,65,0.00,,---,0.00,VWS V15.00,2017-06-26 09:47:00,
2017-06-26 04:52:00,54.3,42.8,30.11,WSW,257,0.0,0.0,65,0.00,,---,0.00,VWS V15.00,2017-06-26 09:52:00,
2017-06-26 04:57:00,54.5,43.0,30.11,WSW,257,0.0,0.0,65,0.00,,---,0.00,VWS V15.00,2017-06-26 09:57:00,
2017-06-26 05:02:00,54.5,43.0,30.11,WSW,257,0.0,0.0,65,0.00,,---,0.00,VWS V15.00,2017-06-26 10:02:00,
2017-06-26 05:07:00,54.5,44.2,30.11,WSW,256,0.0,0.0,68,0.00,,---,0.00,VWS V15.00,2017-06-26 10:07:00,
2017-06-26 05:12:00,54.5,44.2,30.11,WSW,256,0.0,0.0,68,0.00,,---,0.00,VWS V15.00,2017-06-26 10:12:00,
2017-06-26 05:17:00,54.5,44.2,30.11,WSW,256,0.0,0.0,68,0.00,,---,0.00,VWS V15.00,2017-06-26 10:17:00,
2017-06-26 05:22:00,54.5,44.2,30.11,WSW,256,0.0,0.0,68,0.00,,---,0.00,VWS V15.00,2017-06-26 10:22:00,
2017-06-26 05:27:00,54.5,44.2,30.11,WSW,256,0.0,0.0,68,0.00,,---,0.00,VWS V15.00,2017-06-26 10:27:00,
2017-06-26 05:32:00,54.5,44.2,30.11,WSW,256,0.0,0.0,68,0.00,,---,0.00,VWS V15.00,2017-06-26 10:32:00,
2017-06-26 05:37:00,54.5,44.9,30.11,WSW,256,0.0,0.0,70,0.00,,---,0.00,VWS V15.00,2017-06-26 10:37:00,
2017-06-26 05:42:00,54.5,44.9,30.11,WSW,256,0.0,0.0,70,0.00,,---,0.00,VWS V15.00,2017-06-26 10:42:00,
2017-06-26 05:47:00,54.5,44.9,30.11,WSW,256,0.0,0.0,70,0.00,,---,0.00,VWS V15.00,2017-06-26 10:47:00,
2017-06-26 05:52:00,54.9,45.3,30.11,WSW,256,0.0,0.0,70,0.00,,---,0.00,VWS V15.00,2017-06-26 10:52:00,
2017-06-26 05:57:00,55.0,45.8,30.11,WSW,256,0.0,0.0,71,0.00,,---,0.00,VWS V15.00,2017-06-26 10:57:00,
2017-06-26 06:02:00,55.2,46.0,30.11,WSW,256,0.0,0.0,71,0.00,,---,0.00,VWS V15.00,2017-06-26 11:02:00,
2017-06-26 06:07:00,55.4,45.8,30.11,WSW,256,0.0,0.0,70,0.00,,---,0.00,VWS V15.00,2017-06-26 11:07:00,